Time;durP1;ratioP1;P1;durP2;ratioP2;P2;SDS_P1;SDS_P2;PMS_P1;PMS_P2;Temp;Humidity;BMP_temperature;BMP_pressure;BME280_temperature;BME280_humidity;BME280_pressure;Samples;Min_cycle;Max_cycle;Signal;HPM_P1;HPM_P2
2022/01/06 00:00:00;;;;;;;;;;;19.40;54.40;;;;;;5024137;28;43092;-76
2022/01/06 00:02:26;;;;;;;;;;;19.40;54.40;;;;;;5017299;28;43080;-77
2022/01/06 00:04:52;;;;;;;;;;;19.40;54.50;;;;;;5003263;28;43136;-77
2022/01/06 00:07:17;;;;;;;;;;;19.40;54.60;;;;;;5016798;28;43115;-75
2022/01/06 00:09:43;;;;;;;;;;;19.40;54.70;;;;;;5015070;28;42977;-77
2022/01/06 00:12:12;;;;;;;;;;;19.40;54.80;;;;;;4998505;28;43234;-81
2022/01/06 00:14:54;;;;;;;;;;;19.40;54.80;;;;;;5015664;28;42969;-80
2022/01/06 00:17:39;;;;;;;;;;;19.50;55.10;;;;;;5016636;28;42885;-80
2022/01/06 00:25:35;;;;;;;;;;;19.40;55.10;;;;;;5019676;28;42983;-83
2022/01/06 00:28:00;;;;;;;;;;;19.40;55.20;;;;;;5019591;28;43976;-78
2022/01/06 00:30:26;;;;;;;;;;;19.40;55.40;;;;;;5015505;28;42994;-81
2022/01/06 00:32:52;;;;;;;;;;;19.40;55.40;;;;;;5015443;28;43172;-81
2022/01/06 00:35:17;;;;;;;;;;;19.40;55.50;;;;;;5017067;28;43282;-80
2022/01/06 00:37:43;;;;;;;;;;;19.40;55.50;;;;;;5014422;28;43110;-81
2022/01/06 00:40:08;;;;;;;;;;;19.40;55.60;;;;;;5015791;28;43048;-79
2022/01/06 00:42:34;;;;;;;;;;;19.40;55.70;;;;;;5014465;28;42996;-82
2022/01/06 00:44:59;;;;;;;;;;;19.40;55.70;;;;;;5019025;28;43370;-81
2022/01/06 00:47:25;;;;;;;;;;;19.30;55.70;;;;;;5014687;28;43418;-78
2022/01/06 00:49:50;;;;;;;;;;;19.40;55.80;;;;;;5016205;28;42995;-79
2022/01/06 00:52:16;;;;;;;;;;;19.40;55.80;;;;;;5006180;28;43048;-78
2022/01/06 00:54:41;;;;;;;;;;;19.40;55.80;;;;;;5005166;28;42990;-78
2022/01/06 00:57:07;;;;;;;;;;;19.40;56.00;;;;;;5005169;28;43026;-79
2022/01/06 00:59:33;;;;;;;;;;;19.40;56.20;;;;;;5005908;28;43016;-80
2022/01/06 01:01:58;;;;;;;;;;;19.40;56.10;;;;;;5005670;28;43772;-78
2022/01/06 01:04:24;;;;;;;;;;;19.30;56.00;;;;;;5005907;28;43597;-80
2022/01/06 01:06:49;;;;;;;;;;;19.40;56.20;;;;;;5005110;28;43535;-80
2022/01/06 01:09:15;;;;;;;;;;;19.40;56.30;;;;;;5004973;28;42995;-81
2022/01/06 01:11:40;;;;;;;;;;;19.30;56.30;;;;;;5022164;28;43702;-80
2022/01/06 01:14:26;;;;;;;;;;;19.30;56.30;;;;;;5025063;28;42877;-80
2022/01/06 01:17:00;;;;;;;;;;;19.30;56.40;;;;;;5024962;28;44359;-79
2022/01/06 01:19:26;;;;;;;;;;;19.30;56.70;;;;;;5024719;28;43057;-79
2022/01/06 01:21:52;;;;;;;;;;;19.30;56.90;;;;;;5024329;28;42851;-83
2022/01/06 01:24:18;;;;;;;;;;;19.40;57.00;;;;;;5024801;28;42936;-81
2022/01/06 01:26:44;;;;;;;;;;;19.30;57.10;;;;;;5025481;28;44097;-84
2022/01/06 01:29:14;;;;;;;;;;;19.30;57.20;;;;;;5024721;28;42903;-83
2022/01/06 01:32:13;;;;;;;;;;;19.30;57.40;;;;;;5024442;28;43318;-83
2022/01/06 01:34:32;;;;;;;;;;;19.30;57.50;;;;;;5020903;28;42893;-79
2022/01/06 01:36:57;;;;;;;;;;;19.30;57.60;;;;;;5023886;28;43020;-79
2022/01/06 01:39:23;;;;;;;;;;;19.40;57.70;;;;;;5024248;28;43211;-79
2022/01/06 01:41:50;;;;;;;;;;;19.30;57.80;;;;;;5024151;28;42936;-79
2022/01/06 01:44:18;;;;;;;;;;;19.30;57.90;;;;;;5024306;28;43229;-80
2022/01/06 01:46:52;;;;;;;;;;;19.40;57.80;;;;;;5024149;28;43500;-79
2022/01/06 01:51:49;;;;;;;;;;;19.30;58.10;;;;;;5023713;28;43011;-78
2022/01/06 01:54:15;;;;;;;;;;;19.30;58.20;;;;;;5023864;28;42831;-78
2022/01/06 01:56:41;;;;;;;;;;;19.30;58.20;;;;;;5024373;28;43681;-78
2022/01/06 01:59:06;;;;;;;;;;;19.30;58.30;;;;;;5024461;28;43175;-78
2022/01/06 02:01:32;;;;;;;;;;;19.40;58.50;;;;;;5022875;28;44126;-78
2022/01/06 02:03:57;;;;;;;;;;;19.30;58.40;;;;;;5006609;28;43128;-75
2022/01/06 02:06:24;;;;;;;;;;;19.30;58.50;;;;;;5023796;28;42866;-81
2022/01/06 02:08:51;;;;;;;;;;;19.30;58.50;;;;;;5024576;28;42959;-77
2022/01/06 02:11:17;;;;;;;;;;;19.30;58.50;;;;;;5024559;28;43960;-81
2022/01/06 02:13:46;;;;;;;;;;;19.30;58.60;;;;;;5023680;28;42972;-82
2022/01/06 02:16:12;;;;;;;;;;;19.30;58.60;;;;;;5005880;28;45530;-82
2022/01/06 02:18:37;;;;;;;;;;;19.30;58.60;;;;;;5023562;28;43192;-77
2022/01/06 02:21:03;;;;;;;;;;;19.30;58.60;;;;;;5024084;28;42904;-75
2022/01/06 02:23:28;;;;;;;;;;;19.30;58.70;;;;;;5024005;28;42913;-79
2022/01/06 02:25:54;;;;;;;;;;;19.30;58.60;;;;;;5023763;28;43796;-78
2022/01/06 02:28:22;;;;;;;;;;;19.30;58.60;;;;;;5023153;28;43165;-78
2022/01/06 02:30:50;;;;;;;;;;;19.30;58.60;;;;;;5023274;28;43614;-77
2022/01/06 02:33:16;;;;;;;;;;;19.30;58.70;;;;;;5022940;28;43084;-79
2022/01/06 02:35:42;;;;;;;;;;;19.30;58.60;;;;;;5022387;28;42969;-79
2022/01/06 02:38:08;;;;;;;;;;;19.30;58.70;;;;;;5024181;28;43182;-78
2022/01/06 02:40:34;;;;;;;;;;;19.30;58.60;;;;;;5023298;28;43597;-79
2022/01/06 02:43:01;;;;;;;;;;;19.30;58.60;;;;;;5023711;28;43074;-78
2022/01/06 02:45:28;;;;;;;;;;;19.30;58.60;;;;;;5023658;28;43486;-81
2022/01/06 02:47:54;;;;;;;;;;;19.30;58.60;;;;;;5023686;28;42841;-82
2022/01/06 02:50:20;;;;;;;;;;;19.20;58.60;;;;;;5023482;28;42940;-80
2022/01/06 02:52:46;;;;;;;;;;;19.30;58.60;;;;;;5002359;28;42966;-80
2022/01/06 02:55:12;;;;;;;;;;;19.20;58.40;;;;;;5012479;28;43087;-80
2022/01/06 02:57:38;;;;;;;;;;;19.20;58.50;;;;;;5023520;28;42971;-78
2022/01/06 03:00:08;;;;;;;;;;;19.20;58.60;;;;;;5023655;28;42918;-79
2022/01/06 03:02:34;;;;;;;;;;;19.20;58.40;;;;;;5023587;28;42965;-79
2022/01/06 03:04:59;;;;;;;;;;;19.20;58.50;;;;;;5023350;28;44034;-80
2022/01/06 03:07:26;;;;;;;;;;;19.20;58.50;;;;;;5022607;28;43526;-79
2022/01/06 03:09:55;;;;;;;;;;;19.20;58.40;;;;;;5022693;28;43240;-79
2022/01/06 03:12:27;;;;;;;;;;;19.20;58.40;;;;;;5022536;28;42869;-80
2022/01/06 03:14:52;;;;;;;;;;;19.20;58.50;;;;;;5023049;28;43134;-79
2022/01/06 03:17:18;;;;;;;;;;;19.20;58.50;;;;;;5022982;28;42984;-80
2022/01/06 03:19:43;;;;;;;;;;;19.20;58.50;;;;;;5023601;28;44269;-79
2022/01/06 03:22:09;;;;;;;;;;;19.20;58.50;;;;;;5023025;28;42979;-80
2022/01/06 03:24:34;;;;;;;;;;;19.20;58.60;;;;;;5023139;28;43623;-80
2022/01/06 03:27:00;;;;;;;;;;;19.20;58.50;;;;;;5023619;28;42964;-80
2022/01/06 03:29:25;;;;;;;;;;;19.20;58.60;;;;;;5022938;28;43019;-79
2022/01/06 03:31:51;;;;;;;;;;;19.20;58.80;;;;;;5023044;28;42968;-79
2022/01/06 03:34:17;;;;;;;;;;;19.20;58.90;;;;;;5022609;28;43221;-78
2022/01/06 03:36:42;;;;;;;;;;;19.20;59.20;;;;;;5023345;28;43049;-79
2022/01/06 03:39:08;;;;;;;;;;;19.20;58.90;;;;;;5004539;28;44269;-81
2022/01/06 03:41:34;;;;;;;;;;;19.20;59.00;;;;;;5022836;28;42962;-83
2022/01/06 03:43:59;;;;;;;;;;;19.20;59.00;;;;;;5023204;28;43046;-79
2022/01/06 03:46:25;;;;;;;;;;;19.30;59.00;;;;;;5022970;28;43699;-74
2022/01/06 03:48:51;;;;;;;;;;;19.20;59.00;;;;;;5022656;28;43619;-76
2022/01/06 03:51:18;;;;;;;;;;;19.20;59.20;;;;;;5023286;28;42917;-82
2022/01/06 03:53:44;;;;;;;;;;;19.30;59.20;;;;;;5017693;28;43095;-79
2022/01/06 03:56:09;;;;;;;;;;;19.20;59.40;;;;;;5013611;28;42900;-83
2022/01/06 03:58:39;;;;;;;;;;;19.20;59.50;;;;;;5020566;28;42940;-75
2022/01/06 04:01:05;;;;;;;;;;;19.20;59.60;;;;;;5021866;28;43016;-74
2022/01/06 04:03:30;;;;;;;;;;;19.20;59.60;;;;;;5022552;28;43383;-73
2022/01/06 04:05:56;;;;;;;;;;;19.20;59.70;;;;;;5023034;28;43132;-83
2022/01/06 04:08:21;;;;;;;;;;;19.20;59.70;;;;;;5023014;28;43486;-76
2022/01/06 04:10:47;;;;;;;;;;;19.20;59.80;;;;;;5022982;28;42976;-76
2022/01/06 04:13:12;;;;;;;;;;;19.20;59.80;;;;;;5022836;28;43383;-76
2022/01/06 04:15:38;;;;;;;;;;;19.20;59.90;;;;;;5023084;28;43011;-81
2022/01/06 04:18:04;;;;;;;;;;;19.20;59.90;;;;;;5022344;28;44358;-77
2022/01/06 04:20:29;;;;;;;;;;;19.20;60.00;;;;;;5021711;28;43431;-80
2022/01/06 04:22:55;;;;;;;;;;;19.20;60.00;;;;;;5022964;28;43008;-76
2022/01/06 04:25:21;;;;;;;;;;;19.20;60.10;;;;;;5025163;28;43640;-78
2022/01/06 04:27:46;;;;;;;;;;;19.20;60.10;;;;;;5026244;28;42966;-75
2022/01/06 04:30:12;;;;;;;;;;;19.20;60.00;;;;;;5025589;28;43134;-80
2022/01/06 04:32:38;;;;;;;;;;;19.20;60.10;;;;;;5025559;28;43146;-80
2022/01/06 04:35:04;;;;;;;;;;;19.20;60.10;;;;;;5024884;28;42944;-75
2022/01/06 04:37:29;;;;;;;;;;;19.20;60.10;;;;;;5025869;28;43407;-79
2022/01/06 04:39:55;;;;;;;;;;;19.20;60.10;;;;;;5025773;28;42918;-78
2022/01/06 04:42:21;;;;;;;;;;;19.20;60.20;;;;;;5025369;28;44142;-80
2022/01/06 04:44:46;;;;;;;;;;;19.20;60.20;;;;;;5025519;28;43018;-80
2022/01/06 04:47:12;;;;;;;;;;;19.20;60.40;;;;;;5025431;28;42988;-81
2022/01/06 04:49:37;;;;;;;;;;;19.20;60.30;;;;;;5025711;28;43035;-79
2022/01/06 04:52:03;;;;;;;;;;;19.20;60.90;;;;;;5025638;28;44285;-80
2022/01/06 04:54:29;;;;;;;;;;;19.10;60.30;;;;;;5025331;28;43296;-80
2022/01/06 04:56:54;;;;;;;;;;;19.10;60.30;;;;;;5025416;28;43100;-80
2022/01/06 04:59:20;;;;;;;;;;;19.10;60.30;;;;;;5025407;28;42957;-80
2022/01/06 05:01:45;;;;;;;;;;;19.10;60.40;;;;;;5020704;28;42950;-81
2022/01/06 05:04:11;;;;;;;;;;;19.10;60.40;;;;;;5022721;28;43294;-80
2022/01/06 05:06:36;;;;;;;;;;;19.10;60.50;;;;;;5014774;28;43939;-82
2022/01/06 05:09:02;;;;;;;;;;;19.10;60.40;;;;;;5025188;28;43202;-78
2022/01/06 05:11:28;;;;;;;;;;;19.10;60.40;;;;;;5024991;28;42937;-82
2022/01/06 05:13:54;;;;;;;;;;;19.10;60.50;;;;;;5024483;28;42846;-82
2022/01/06 05:16:20;;;;;;;;;;;19.10;60.50;;;;;;5024959;28;42928;-81
2022/01/06 05:18:45;;;;;;;;;;;19.10;60.40;;;;;;5025034;28;43153;-81
2022/01/06 05:21:11;;;;;;;;;;;19.10;60.50;;;;;;5025008;28;42921;-80
2022/01/06 05:23:38;;;;;;;;;;;19.10;60.50;;;;;;5025228;28;42988;-80
2022/01/06 05:26:04;;;;;;;;;;;19.10;60.50;;;;;;5024703;28;42913;-81
2022/01/06 05:28:29;;;;;;;;;;;19.10;60.50;;;;;;5024736;28;43424;-80
2022/01/06 05:30:55;;;;;;;;;;;19.10;60.50;;;;;;5016941;28;42993;-81
2022/01/06 05:33:20;;;;;;;;;;;19.10;60.50;;;;;;5012864;28;43017;-80
2022/01/06 05:35:46;;;;;;;;;;;19.10;60.50;;;;;;5024329;28;43337;-84
2022/01/06 05:38:12;;;;;;;;;;;19.10;60.80;;;;;;5024566;28;42953;-82
2022/01/06 05:40:37;;;;;;;;;;;19.10;60.50;;;;;;5024120;28;42987;-79
2022/01/06 05:43:03;;;;;;;;;;;19.00;60.50;;;;;;5023729;28;42941;-81
2022/01/06 05:45:29;;;;;;;;;;;19.10;60.50;;;;;;5022818;28;43009;-79
2022/01/06 05:47:54;;;;;;;;;;;19.10;60.50;;;;;;5023214;28;42987;-80
2022/01/06 05:50:20;;;;;;;;;;;19.10;60.50;;;;;;5022914;28;42999;-81
2022/01/06 05:52:46;;;;;;;;;;;19.10;60.80;;;;;;5024191;28;42779;-80
2022/01/06 05:55:12;;;;;;;;;;;19.00;60.40;;;;;;5005601;28;43995;-77
2022/01/06 05:57:38;;;;;;;;;;;19.00;61.10;;;;;;5024051;28;43025;-81
2022/01/06 06:00:04;;;;;;;;;;;19.10;60.50;;;;;;5006600;28;43758;-80
2022/01/06 06:02:30;;;;;;;;;;;19.10;60.40;;;;;;5024357;28;43142;-80
2022/01/06 06:04:55;;;;;;;;;;;19.10;60.60;;;;;;5024535;28;42905;-80
2022/01/06 06:07:21;;;;;;;;;;;19.10;60.50;;;;;;5024527;28;43073;-80
2022/01/06 06:09:47;;;;;;;;;;;19.00;60.30;;;;;;5024905;28;42896;-80
2022/01/06 06:12:13;;;;;;;;;;;19.00;60.40;;;;;;5024256;28;42854;-79
2022/01/06 06:14:38;;;;;;;;;;;19.00;60.40;;;;;;5024210;28;42953;-79
2022/01/06 06:17:04;;;;;;;;;;;19.00;60.50;;;;;;5023950;28;42926;-78
2022/01/06 06:19:29;;;;;;;;;;;19.00;60.30;;;;;;5024031;28;42951;-78
2022/01/06 06:21:55;;;;;;;;;;;19.00;60.40;;;;;;5024065;28;42944;-81
2022/01/06 06:24:22;;;;;;;;;;;19.00;60.30;;;;;;5023265;28;42936;-77
2022/01/06 06:26:48;;;;;;;;;;;19.00;60.30;;;;;;5024284;28;43052;-81
2022/01/06 06:29:13;;;;;;;;;;;19.00;60.30;;;;;;5024225;28;43246;-81
2022/01/06 06:31:39;;;;;;;;;;;19.00;60.30;;;;;;5023336;28;42901;-80
2022/01/06 06:34:04;;;;;;;;;;;19.10;60.50;;;;;;5023699;28;43443;-80
2022/01/06 06:36:30;;;;;;;;;;;19.00;60.50;;;;;;5023914;28;42971;-76
2022/01/06 06:38:55;;;;;;;;;;;18.90;60.40;;;;;;5023646;28;42873;-78
2022/01/06 06:41:21;;;;;;;;;;;19.00;60.40;;;;;;5020947;28;43238;-75
2022/01/06 06:43:46;;;;;;;;;;;19.00;60.40;;;;;;5023643;28;43311;-78
2022/01/06 06:46:12;;;;;;;;;;;19.00;60.50;;;;;;5015026;28;43161;-79
2022/01/06 06:48:37;;;;;;;;;;;19.00;60.40;;;;;;5003288;28;43561;-78
2022/01/06 06:51:03;;;;;;;;;;;19.00;60.40;;;;;;5003992;28;43140;-80
2022/01/06 06:53:29;;;;;;;;;;;19.00;60.50;;;;;;5004119;28;43050;-78
2022/01/06 06:55:54;;;;;;;;;;;19.00;60.40;;;;;;5008921;28;42908;-79
2022/01/06 06:58:20;;;;;;;;;;;18.90;60.30;;;;;;5022949;28;42897;-75
2022/01/06 07:00:45;;;;;;;;;;;19.00;60.40;;;;;;5023540;28;42950;-76
2022/01/06 07:03:11;;;;;;;;;;;18.90;60.30;;;;;;5023082;28;42944;-77
2022/01/06 07:05:36;;;;;;;;;;;18.90;60.40;;;;;;5023505;28;42806;-76
2022/01/06 07:08:02;;;;;;;;;;;18.90;60.30;;;;;;5023120;28;42947;-77
2022/01/06 07:10:28;;;;;;;;;;;18.90;60.40;;;;;;5018277;28;43098;-78
2022/01/06 07:12:53;;;;;;;;;;;18.90;60.30;;;;;;5009981;28;42947;-79
2022/01/06 07:15:19;;;;;;;;;;;18.90;60.40;;;;;;5022561;28;43515;-78
2022/01/06 07:17:44;;;;;;;;;;;18.90;60.30;;;;;;5022664;28;43275;-78
2022/01/06 07:20:11;;;;;;;;;;;19.00;60.40;;;;;;5022106;28;43052;-79
2022/01/06 07:22:37;;;;;;;;;;;18.90;60.30;;;;;;5022241;28;43506;-79
2022/01/06 07:25:03;;;;;;;;;;;18.90;60.40;;;;;;5022415;28;43089;-77
2022/01/06 07:27:28;;;;;;;;;;;18.90;60.30;;;;;;5021697;28;42964;-79
2022/01/06 07:29:54;;;;;;;;;;;18.90;60.40;;;;;;5022692;28;43025;-79
2022/01/06 07:32:19;;;;;;;;;;;18.90;60.30;;;;;;5022005;28;44093;-79
2022/01/06 07:34:45;;;;;;;;;;;18.90;60.30;;;;;;5022374;28;42932;-79
2022/01/06 07:37:10;;;;;;;;;;;19.00;60.40;;;;;;5022309;28;43293;-80
2022/01/06 07:39:36;;;;;;;;;;;18.90;60.30;;;;;;5021611;28;42789;-80
2022/01/06 07:42:02;;;;;;;;;;;18.90;60.30;;;;;;5020800;28;43451;-81
2022/01/06 07:44:28;;;;;;;;;;;18.90;60.30;;;;;;5021148;28;43016;-81
2022/01/06 07:46:53;;;;;;;;;;;18.90;60.30;;;;;;5013716;28;43130;-82
2022/01/06 07:49:19;;;;;;;;;;;18.90;60.20;;;;;;5002019;28;43011;-80
2022/01/06 07:51:44;;;;;;;;;;;18.90;60.40;;;;;;5006230;28;43008;-80
2022/01/06 07:54:10;;;;;;;;;;;18.90;60.20;;;;;;5022381;28;42898;-79
2022/01/06 07:56:36;;;;;;;;;;;18.90;60.20;;;;;;5021138;28;43015;-78
2022/01/06 07:59:01;;;;;;;;;;;18.90;60.30;;;;;;5024388;28;42941;-81
2022/01/06 08:01:27;;;;;;;;;;;18.90;60.20;;;;;;5024357;28;43573;-78
2022/01/06 08:03:52;;;;;;;;;;;18.90;60.20;;;;;;5008717;28;42997;-79
2022/01/06 08:06:18;;;;;;;;;;;18.90;60.10;;;;;;5017936;28;43978;-80
2022/01/06 08:08:44;;;;;;;;;;;18.80;60.00;;;;;;5025976;28;43024;-85
2022/01/06 08:11:10;;;;;;;;;;;18.90;60.20;;;;;;5019108;28;43376;-84
2022/01/06 08:13:36;;;;;;;;;;;18.80;60.50;;;;;;5017119;28;42882;-85
2022/01/06 08:16:02;;;;;;;;;;;18.80;59.70;;;;;;5013828;28;43582;-89
2022/01/06 08:18:27;;;;;;;;;;;18.80;59.60;;;;;;5013878;28;43245;-85
2022/01/06 08:20:53;;;;;;;;;;;18.80;58.70;;;;;;5019797;28;42894;-75
2022/01/06 08:23:18;;;;;;;;;;;18.80;59.10;;;;;;5013276;28;43103;-75
2022/01/06 08:25:45;;;;;;;;;;;18.80;58.90;;;;;;5013695;28;42947;-82
2022/01/06 08:28:10;;;;;;;;;;;18.80;58.20;;;;;;5025096;28;42903;-75
2022/01/06 08:30:36;;;;;;;;;;;18.70;57.90;;;;;;5025056;28;43687;-78
2022/01/06 08:33:01;;;;;;;;;;;18.70;58.00;;;;;;5025306;28;43024;-80
2022/01/06 08:35:28;;;;;;;;;;;18.70;57.50;;;;;;5025146;28;43441;-77
2022/01/06 08:37:53;;;;;;;;;;;18.70;56.90;;;;;;5025722;28;43089;-83
2022/01/06 08:40:19;;;;;;;;;;;18.70;57.00;;;;;;5024519;28;43535;-76
2022/01/06 08:42:46;;;;;;;;;;;18.70;57.70;;;;;;5025421;28;42891;-81
2022/01/06 08:45:12;;;;;;;;;;;18.70;57.70;;;;;;5024785;28;44290;-77
2022/01/06 08:47:37;;;;;;;;;;;18.70;57.80;;;;;;5024713;28;42948;-77
2022/01/06 08:50:03;;;;;;;;;;;18.70;58.00;;;;;;5024803;28;42876;-76
2022/01/06 08:52:29;;;;;;;;;;;18.70;57.70;;;;;;5025137;28;42911;-78
2022/01/06 08:54:54;;;;;;;;;;;18.70;57.40;;;;;;5024114;28;42921;-76
2022/01/06 08:57:21;;;;;;;;;;;18.70;57.50;;;;;;5025072;28;42869;-78
2022/01/06 08:59:47;;;;;;;;;;;18.70;57.70;;;;;;5024611;28;43337;-77
2022/01/06 09:02:13;;;;;;;;;;;18.70;57.30;;;;;;5025110;28;42946;-77
2022/01/06 09:04:38;;;;;;;;;;;18.70;57.50;;;;;;5024777;28;43691;-82
2022/01/06 09:07:04;;;;;;;;;;;18.70;56.60;;;;;;5025513;28;43003;-77
2022/01/06 09:09:29;;;;;;;;;;;18.60;56.20;;;;;;5024515;28;42953;-76
2022/01/06 09:11:55;;;;;;;;;;;18.60;57.00;;;;;;5025186;28;43019;-77
2022/01/06 09:14:22;;;;;;;;;;;18.70;56.70;;;;;;5012469;28;43960;-78
2022/01/06 09:16:49;;;;;;;;;;;18.60;57.00;;;;;;5016197;28;43352;-77
2022/01/06 09:19:14;;;;;;;;;;;18.70;57.20;;;;;;5015210;28;44405;-80
2022/01/06 09:21:40;;;;;;;;;;;18.60;56.60;;;;;;5023885;28;42873;-75
2022/01/06 09:24:07;;;;;;;;;;;18.10;51.80;;;;;;5018916;28;43412;-75
2022/01/06 09:26:35;;;;;;;;;;;18.10;54.50;;;;;;5008729;28;43214;-76
2022/01/06 09:29:05;;;;;;;;;;;18.20;55.60;;;;;;5016973;28;43857;-76
2022/01/06 09:31:32;;;;;;;;;;;18.30;55.50;;;;;;5025542;28;42924;-78
2022/01/06 09:33:59;;;;;;;;;;;18.20;53.40;;;;;;5023445;28;43131;-76
2022/01/06 09:36:27;;;;;;;;;;;18.20;54.20;;;;;;5022568;28;43229;-76
2022/01/06 09:38:53;;;;;;;;;;;18.20;54.00;;;;;;5024581;28;43256;-76
2022/01/06 09:41:19;;;;;;;;;;;18.20;53.20;;;;;;5025341;28;42976;-76
2022/01/06 09:43:45;;;;;;;;;;;18.30;53.30;;;;;;5025844;28;42739;-76
2022/01/06 09:46:11;;;;;;;;;;;18.30;53.40;;;;;;5025879;28;42882;-76
2022/01/06 09:48:37;;;;;;;;;;;18.20;53.80;;;;;;5025414;28;42897;-75
2022/01/06 09:51:03;;;;;;;;;;;18.20;53.70;;;;;;5006711;28;43232;-74
2022/01/06 09:53:28;;;;;;;;;;;18.20;53.80;;;;;;5025602;28;43138;-75
2022/01/06 09:55:54;;;;;;;;;;;18.20;53.90;;;;;;5025353;28;42993;-75
2022/01/06 09:58:24;;;;;;;;;;;18.20;53.50;;;;;;5007334;28;44870;-75
2022/01/06 10:00:50;;;;;;;;;;;18.20;53.40;;;;;;5025388;28;42920;-75
2022/01/06 10:03:16;;;;;;;;;;;18.20;53.80;;;;;;5025721;28;42945;-75
2022/01/06 10:05:43;;;;;;;;;;;18.20;53.70;;;;;;5007585;28;43009;-76
2022/01/06 10:08:10;;;;;;;;;;;18.00;46.20;;;;;;5024812;28;43312;-73
2022/01/06 10:10:35;;;;;;;;;;;17.30;45.90;;;;;;5007399;28;43132;-74
2022/01/06 10:13:07;;;;;;;;;;;17.20;47.40;;;;;;5007584;28;43259;-73
2022/01/06 10:15:34;;;;;;;;;;;17.10;49.20;;;;;;5004173;28;42965;-76
2022/01/06 10:18:09;;;;;;;;;;;17.20;47.70;;;;;;5026499;28;44184;-74
2022/01/06 10:20:37;;;;;;;;;;;17.30;48.00;;;;;;5030700;28;43341;-75
2022/01/06 10:23:09;;;;;;;;;;;17.40;48.60;;;;;;5004766;28;43644;-77
2022/01/06 10:25:38;;;;;;;;;;;17.40;48.30;;;;;;5023942;28;43032;-74
2022/01/06 10:28:13;;;;;;;;;;;17.50;48.90;;;;;;5013331;28;43572;-78
2022/01/06 10:30:47;;;;;;;;;;;17.60;48.60;;;;;;5021852;28;42830;-75
2022/01/06 10:33:14;;;;;;;;;;;17.60;48.50;;;;;;5020497;28;43640;-77
2022/01/06 10:35:39;;;;;;;;;;;17.70;48.20;;;;;;5022614;28;42857;-77
2022/01/06 10:38:05;;;;;;;;;;;17.70;48.40;;;;;;5022775;28;43643;-76
2022/01/06 10:40:31;;;;;;;;;;;17.80;48.60;;;;;;5022129;28;42932;-74
2022/01/06 10:43:05;;;;;;;;;;;17.80;48.50;;;;;;5022333;28;43088;-74
2022/01/06 10:45:31;;;;;;;;;;;17.90;48.70;;;;;;5017878;28;42873;-74
2022/01/06 10:47:59;;;;;;;;;;;17.90;48.70;;;;;;5023282;28;44028;-73
2022/01/06 10:50:29;;;;;;;;;;;18.00;48.80;;;;;;5021879;28;43011;-75
2022/01/06 10:53:00;;;;;;;;;;;18.00;48.80;;;;;;5020206;28;43034;-77
2022/01/06 10:55:44;;;;;;;;;;;18.10;48.90;;;;;;5023718;28;43082;-78
2022/01/06 10:58:11;;;;;;;;;;;18.10;48.80;;;;;;5023302;28;43573;-78
2022/01/06 11:00:37;;;;;;;;;;;18.10;48.90;;;;;;5023874;28;42991;-78
2022/01/06 11:03:06;;;;;;;;;;;18.20;49.10;;;;;;5020051;28;43557;-79
2022/01/06 11:05:36;;;;;;;;;;;18.20;49.00;;;;;;5004069;28;43123;-78
2022/01/06 11:08:02;;;;;;;;;;;18.20;49.00;;;;;;5004192;28;43477;-78
2022/01/06 11:10:28;;;;;;;;;;;18.20;49.10;;;;;;5014628;28;42968;-77
2022/01/06 11:12:53;;;;;;;;;;;18.30;49.20;;;;;;5012998;28;43060;-76
2022/01/06 11:15:19;;;;;;;;;;;18.30;49.20;;;;;;5017223;28;43052;-73
2022/01/06 11:17:46;;;;;;;;;;;19.10;49.70;;;;;;5014868;28;43661;-78
2022/01/06 11:20:12;;;;;;;;;;;18.30;49.20;;;;;;5016206;28;43028;-78
2022/01/06 11:22:47;;;;;;;;;;;18.30;49.40;;;;;;5016235;28;43608;-78
2022/01/06 11:25:13;;;;;;;;;;;18.30;49.30;;;;;;5013957;28;42913;-79
2022/01/06 11:27:38;;;;;;;;;;;18.40;49.50;;;;;;5017525;28;43762;-77
2022/01/06 11:30:08;;;;;;;;;;;18.40;49.50;;;;;;5008378;28;43036;-78
2022/01/06 11:32:34;;;;;;;;;;;18.40;49.50;;;;;;5012827;28;43928;-77
2022/01/06 11:35:00;;;;;;;;;;;18.40;49.50;;;;;;5008732;28;43079;-77
2022/01/06 11:37:37;;;;;;;;;;;18.40;49.60;;;;;;5015354;28;43012;-77
2022/01/06 11:40:03;;;;;;;;;;;18.40;49.60;;;;;;5013062;28;42968;-77
2022/01/06 11:42:29;;;;;;;;;;;18.40;50.10;;;;;;5014717;28;43589;-78
2022/01/06 11:44:55;;;;;;;;;;;18.50;50.30;;;;;;5020920;28;43568;-79
2022/01/06 11:47:36;;;;;;;;;;;18.60;50.20;;;;;;5014713;28;43604;-79
2022/01/06 11:50:02;;;;;;;;;;;;;;;;;;5018732;28;42894;-82
2022/01/06 11:52:27;;;;;;;;;;;18.70;49.90;;;;;;5019317;28;42984;-81
2022/01/06 11:54:56;;;;;;;;;;;19.10;60.00;;;;;;5013306;28;42888;-81
2022/01/06 11:57:35;;;;;;;;;;;18.70;49.70;;;;;;5023982;28;43551;-79
2022/01/06 12:00:13;;;;;;;;;;;18.70;50.00;;;;;;5022364;28;43061;-77
2022/01/06 12:02:38;;;;;;;;;;;18.70;50.00;;;;;;5011912;28;42966;-75
2022/01/06 12:05:04;;;;;;;;;;;18.70;50.10;;;;;;5013759;28;43787;-77
2022/01/06 12:07:30;;;;;;;;;;;18.70;50.00;;;;;;5015951;28;42975;-80
2022/01/06 12:09:59;;;;;;;;;;;18.70;49.40;;;;;;5011394;28;42993;-82
2022/01/06 12:12:36;;;;;;;;;;;18.60;48.80;;;;;;5018401;28;43049;-77
2022/01/06 12:15:08;;;;;;;;;;;18.00;45.10;;;;;;5015124;28;43137;-73
2022/01/06 12:17:34;;;;;;;;;;;;;;;;;;5023328;28;43641;-74
2022/01/06 12:20:00;;;;;;;;;;;17.50;44.80;;;;;;5017104;28;43107;-74
2022/01/06 12:22:27;;;;;;;;;;;17.30;45.90;;;;;;5014580;28;43040;-72
2022/01/06 12:24:59;;;;;;;;;;;17.30;43.10;;;;;;5013472;28;43277;-73
2022/01/06 12:27:25;;;;;;;;;;;17.10;41.70;;;;;;5014129;28;43423;-78
2022/01/06 12:29:51;;;;;;;;;;;17.10;45.80;;;;;;5015820;28;42933;-79
2022/01/06 12:32:18;;;;;;;;;;;17.40;47.80;;;;;;5014594;28;43738;-79
2022/01/06 12:34:50;;;;;;;;;;;17.50;48.40;;;;;;5019619;28;42947;-79
2022/01/06 12:37:23;;;;;;;;;;;17.50;49.40;;;;;;5013825;28;43002;-78
2022/01/06 12:39:48;;;;;;;;;;;17.60;49.50;;;;;;5011108;28;43238;-78
2022/01/06 12:42:14;;;;;;;;;;;17.70;49.70;;;;;;5016473;28;43010;-78
2022/01/06 12:44:39;;;;;;;;;;;17.70;50.20;;;;;;5018333;28;42919;-77
2022/01/06 12:47:05;;;;;;;;;;;17.80;49.90;;;;;;5016796;28;43491;-76
2022/01/06 12:49:31;;;;;;;;;;;17.80;49.80;;;;;;5017275;28;42864;-75
2022/01/06 12:51:57;;;;;;;;;;;17.90;49.90;;;;;;5017457;28;43201;-76
2022/01/06 12:54:23;;;;;;;;;;;17.80;49.90;;;;;;5016959;28;42936;-77
2022/01/06 12:56:49;;;;;;;;;;;17.90;50.00;;;;;;5015571;28;43581;-74
2022/01/06 12:59:23;;;;;;;;;;;17.90;50.10;;;;;;5023127;28;42921;-75
2022/01/06 13:01:54;;;;;;;;;;;18.00;50.10;;;;;;5025348;28;43003;-77
2022/01/06 13:04:26;;;;;;;;;;;18.00;50.20;;;;;;5024357;28;43327;-76
2022/01/06 13:06:53;;;;;;;;;;;18.00;50.30;;;;;;5014994;28;42900;-73
2022/01/06 13:09:19;;;;;;;;;;;18.10;50.30;;;;;;5011690;28;43103;-78
2022/01/06 13:11:48;;;;;;;;;;;18.10;50.60;;;;;;5007650;28;42922;-76
2022/01/06 13:14:27;;;;;;;;;;;18.10;50.00;;;;;;5021362;28;43099;-73
2022/01/06 13:17:02;;;;;;;;;;;18.20;49.70;;;;;;5024742;28;43503;-75
2022/01/06 13:19:28;;;;;;;;;;;18.20;48.40;;;;;;5015229;28;43591;-73
2022/01/06 13:21:59;;;;;;;;;;;18.00;45.60;;;;;;5014783;28;42980;-72
2022/01/06 13:24:28;;;;;;;;;;;17.70;43.80;;;;;;5021713;28;43002;-73
2022/01/06 13:26:58;;;;;;;;;;;17.70;46.70;;;;;;5024234;28;43703;-73
2022/01/06 13:29:31;;;;;;;;;;;17.50;42.60;;;;;;5022563;28;43014;-72
2022/01/06 13:32:07;;;;;;;;;;;17.30;42.30;;;;;;5011942;28;42995;-69
2022/01/06 13:34:34;;;;;;;;;;;17.20;42.00;;;;;;5019032;28;43421;-73
2022/01/06 13:37:00;;;;;;;;;;;17.10;41.50;;;;;;5016210;28;43136;-72
2022/01/06 13:39:32;;;;;;;;;;;17.00;41.50;;;;;;5022548;28;42940;-73
2022/01/06 13:41:58;;;;;;;;;;;17.00;41.00;;;;;;5022482;28;43045;-73
2022/01/06 13:44:24;;;;;;;;;;;17.10;41.70;;;;;;5024448;28;42997;-73
2022/01/06 13:47:05;;;;;;;;;;;17.10;40.40;;;;;;5022527;28;43260;-74
2022/01/06 13:52:19;;;;;;;;;;;16.90;39.50;;;;;;5021641;28;43291;-74
2022/01/06 13:54:45;;;;;;;;;;;16.90;39.50;;;;;;5023618;28;43024;-69
2022/01/06 13:57:11;;;;;;;;;;;16.80;39.20;;;;;;5023858;28;43013;-74
2022/01/06 13:59:38;;;;;;;;;;;16.80;38.80;;;;;;5024163;28;42994;-73
2022/01/06 14:02:04;;;;;;;;;;;16.80;39.00;;;;;;5023034;28;43598;-74
2022/01/06 14:04:31;;;;;;;;;;;16.70;39.00;;;;;;5024529;28;42979;-74
2022/01/06 14:06:57;;;;;;;;;;;16.70;38.80;;;;;;5024347;28;42834;-73
2022/01/06 14:09:22;;;;;;;;;;;16.70;38.50;;;;;;5023455;28;42993;-74
2022/01/06 14:11:48;;;;;;;;;;;16.70;38.30;;;;;;5023857;28;43412;-73
2022/01/06 14:14:13;;;;;;;;;;;16.60;38.20;;;;;;5023740;28;43032;-69
2022/01/06 14:16:39;;;;;;;;;;;16.60;38.40;;;;;;5023468;28;42975;-71
2022/01/06 14:19:05;;;;;;;;;;;16.60;38.20;;;;;;5024110;28;44351;-73
2022/01/06 14:21:30;;;;;;;;;;;16.60;38.10;;;;;;5024381;28;43109;-69
2022/01/06 14:23:56;;;;;;;;;;;16.50;37.90;;;;;;5023189;28;43074;-74
2022/01/06 14:26:21;;;;;;;;;;;16.50;37.90;;;;;;5022739;28;43475;-72